Graysville, Missouri
Current Conditions -  °F | °C
As of 7:30 PM on Saturday 20 Dec 2014 (Local Time) from KTVK Reporting Station
Overcast Overcast  
Wind Chill: 29°   Ceiling: 200
Heat Index: 36°   Visibility: 9mi
Dew Point: 36°   Wind: 8mph
Humidity: 100%   Direction: 150°SSE
Pressure: 30.16"   Gusts: NA
Location:  40.4961°N, 92.9907°W
Report Text: KTVK 210130Z AUTO 15007KT 9SM OVC002 02/02 A3016 RMK AO2
Loading
Personal Weather Stations






























Interactive Weather Map New forecast layout! Learn more

10-Day Weather Forecast

Advertisements
Track Severe Weather on mobile